sensor_id;sensor_type;location;lat;lon;timestamp;pressure;altitude;pressure_sealevel;temperature;humidity
34925;BME280;21130;51.728;8.748;2024-02-21T00:01:14;101115.34;;;6.95;100.00
34925;BME280;21130;51.728;8.748;2024-02-21T00:03:41;101110.47;;;6.97;100.00
34925;BME280;21130;51.728;8.748;2024-02-21T00:06:08;101114.06;;;6.97;100.00
34925;BME280;21130;51.728;8.748;2024-02-21T00:08:35;101113.66;;;6.93;100.00
34925;BME280;21130;51.728;8.748;2024-02-21T00:11:02;101114.06;;;6.97;100.00
34925;BME280;21130;51.728;8.748;2024-02-21T00:13:29;101108.34;;;6.99;100.00
34925;BME280;21130;51.728;8.748;2024-02-21T00:16:00;101104.94;;;6.97;100.00
34925;BME280;21130;51.728;8.748;2024-02-21T00:18:26;101090.94;;;6.98;100.00
34925;BME280;21130;51.728;8.748;2024-02-21T00:20:53;101085.44;;;6.98;100.00
34925;BME280;21130;51.728;8.748;2024-02-21T00:23:19;101089.03;;;6.99;100.00
34925;BME280;21130;51.728;8.748;2024-02-21T00:25:47;101088.63;;;6.95;100.00
34925;BME280;21130;51.728;8.748;2024-02-21T00:28:14;101090.31;;;6.96;100.00
34925;BME280;21130;51.728;8.748;2024-02-21T00:30:40;101093.72;;;6.98;100.00
34925;BME280;21130;51.728;8.748;2024-02-21T00:33:07;101088.19;;;6.98;100.00
34925;BME280;21130;51.728;8.748;2024-02-21T00:35:33;101092.88;;;6.98;100.00
34925;BME280;21130;51.728;8.748;2024-02-21T00:38:00;101088.19;;;6.98;100.00
34925;BME280;21130;51.728;8.748;2024-02-21T00:40:26;101086.09;;;7.00;100.00
34925;BME280;21130;51.728;8.748;2024-02-21T00:42:54;101070.38;;;7.01;100.00
34925;BME280;21130;51.728;8.748;2024-02-21T00:45:20;101069.53;;;7.00;100.00
34925;BME280;21130;51.728;8.748;2024-02-21T00:47:47;101063.59;;;7.03;100.00
34925;BME280;21130;51.728;8.748;2024-02-21T00:50:13;101057.66;;;7.00;100.00
34925;BME280;21130;51.728;8.748;2024-02-21T00:52:40;101052.13;;;7.00;100.00
34925;BME280;21130;51.728;8.748;2024-02-21T00:55:06;101052.31;;;6.98;100.00
34925;BME280;21130;51.728;8.748;2024-02-21T00:57:33;101047.44;;;7.00;100.00
34925;BME280;21130;51.728;8.748;2024-02-21T01:00:01;101036.41;;;7.00;100.00
34925;BME280;21130;51.728;8.748;2024-02-21T01:02:27;101036.41;;;7.00;100.00
34925;BME280;21130;51.728;8.748;2024-02-21T01:04:56;101030.88;;;7.00;100.00
34925;BME280;21130;51.728;8.748;2024-02-21T01:07:23;101036.00;;;7.03;100.00
34925;BME280;21130;51.728;8.748;2024-02-21T01:09:49;101030.44;;;6.97;100.00
34925;BME280;21130;51.728;8.748;2024-02-21T01:12:16;101019.00;;;7.00;100.00
34925;BME280;21130;51.728;8.748;2024-02-21T01:14:43;101007.75;;;7.01;100.00
34925;BME280;21130;51.728;8.748;2024-02-21T01:17:12;100998.81;;;6.99;100.00
34925;BME280;21130;51.728;8.748;2024-02-21T01:19:39;101004.97;;;7.01;100.00
34925;BME280;21130;51.728;8.748;2024-02-21T01:22:06;100997.78;;;7.00;100.00
34925;BME280;21130;51.728;8.748;2024-02-21T01:24:33;101004.56;;;7.04;100.00
34925;BME280;21130;51.728;8.748;2024-02-21T01:26:59;100994.38;;;7.05;100.00
34925;BME280;21130;51.728;8.748;2024-02-21T01:29:25;100990.97;;;7.03;100.00
34925;BME280;21130;51.728;8.748;2024-02-21T01:31:52;100998.84;;;7.06;100.00
34925;BME280;21130;51.728;8.748;2024-02-21T01:34:20;100994.81;;;7.08;100.00
34925;BME280;21130;51.728;8.748;2024-02-21T01:36:46;100995.22;;;7.12;100.00
34925;BME280;21130;51.728;8.748;2024-02-21T01:39:12;100995.22;;;7.12;100.00
34925;BME280;21130;51.728;8.748;2024-02-21T01:41:39;100986.31;;;7.17;100.00
34925;BME280;21130;51.728;8.748;2024-02-21T01:44:05;100987.38;;;7.16;100.00
34925;BME280;21130;51.728;8.748;2024-02-21T01:46:32;100987.81;;;7.19;100.00
34925;BME280;21130;51.728;8.748;2024-02-21T01:48:59;100969.34;;;7.26;100.00
34925;BME280;21130;51.728;8.748;2024-02-21T01:51:27;100971.25;;;7.26;100.00
34925;BME280;21130;51.728;8.748;2024-02-21T01:53:55;100973.19;;;7.25;100.00
34925;BME280;21130;51.728;8.748;2024-02-21T01:56:23;100967.66;;;7.25;100.00
34925;BME280;21130;51.728;8.748;2024-02-21T01:58:51;100966.56;;;7.26;100.00
34925;BME280;21130;51.728;8.748;2024-02-21T02:01:17;100967.03;;;7.30;100.00
34925;BME280;21130;51.728;8.748;2024-02-21T02:03:45;100971.25;;;7.26;100.00
34925;BME280;21130;51.728;8.748;2024-02-21T02:06:11;100967.84;;;7.24;100.00
34925;BME280;21130;51.728;8.748;2024-02-21T02:08:40;100968.28;;;7.27;100.00
34925;BME280;21130;51.728;8.748;2024-02-21T02:11:06;100973.59;;;7.29;100.00
34925;BME280;21130;51.728;8.748;2024-02-21T02:13:33;100962.53;;;7.29;100.00
34925;BME280;21130;51.728;8.748;2024-02-21T02:15:59;100963.63;;;7.28;100.00
34925;BME280;21130;51.728;8.748;2024-02-21T02:18:26;100951.50;;;7.29;100.00
34925;BME280;21130;51.728;8.748;2024-02-21T02:20:53;100947.69;;;7.30;100.00
34925;BME280;21130;51.728;8.748;2024-02-21T02:23:24;100939.63;;;7.28;100.00
34925;BME280;21130;51.728;8.748;2024-02-21T02:25:50;100934.28;;;7.27;100.00
34925;BME280;21130;51.728;8.748;2024-02-21T02:28:18;100931.75;;;7.25;100.00
34925;BME280;21130;51.728;8.748;2024-02-21T02:30:45;100930.47;;;7.21;100.00
34925;BME280;21130;51.728;8.748;2024-02-21T02:33:12;100928.56;;;7.22;100.00
34925;BME280;21130;51.728;8.748;2024-02-21T02:35:38;100929.41;;;7.22;100.00
34925;BME280;21130;51.728;8.748;2024-02-21T02:38:05;100934.09;;;7.22;100.00
34925;BME280;21130;51.728;8.748;2024-02-21T02:40:34;100923.88;;;7.22;100.00
34925;BME280;21130;51.728;8.748;2024-02-21T02:43:01;100923.47;;;7.19;100.00
34925;BME280;21130;51.728;8.748;2024-02-21T02:45:28;100930.69;;;7.20;100.00
34925;BME280;21130;51.728;8.748;2024-02-21T02:47:55;100912.63;;;7.17;100.00
34925;BME280;21130;51.728;8.748;2024-02-21T02:50:24;100908.59;;;7.20;100.00
34925;BME280;21130;51.728;8.748;2024-02-21T02:52:50;100905.00;;;7.19;100.00
34925;BME280;21130;51.728;8.748;2024-02-21T02:55:17;100905.22;;;7.18;100.00
34925;BME280;21130;51.728;8.748;2024-02-21T02:57:45;100899.06;;;7.16;100.00
34925;BME280;21130;51.728;8.748;2024-02-21T03:00:12;100888.84;;;7.16;100.00
34925;BME280;21130;51.728;8.748;2024-02-21T03:02:42;100886.94;;;7.17;100.00
34925;BME280;21130;51.728;8.748;2024-02-21T03:05:13;100890.34;;;7.19;100.00
34925;BME280;21130;51.728;8.748;2024-02-21T03:07:41;100879.75;;;7.16;100.00
34925;BME280;21130;51.728;8.748;2024-02-21T03:10:08;100874.44;;;7.21;100.00
34925;BME280;21130;51.728;8.748;2024-02-21T03:12:34;100872.50;;;7.21;100.00
34925;BME280;21130;51.728;8.748;2024-02-21T03:15:03;100866.56;;;7.18;100.00
34925;BME280;21130;51.728;8.748;2024-02-21T03:17:31;100862.75;;;7.19;100.00
34925;BME280;21130;51.728;8.748;2024-02-21T03:23:06;100853.81;;;7.17;100.00
34925;BME280;21130;51.728;8.748;2024-02-21T03:25:32;100848.53;;;7.15;100.00
34925;BME280;21130;51.728;8.748;2024-02-21T03:27:59;100850.22;;;7.16;100.00
34925;BME280;21130;51.728;8.748;2024-02-21T03:30:27;100844.91;;;7.14;100.00
34925;BME280;21130;51.728;8.748;2024-02-21T03:32:53;100821.13;;;7.13;100.00
34925;BME280;21130;51.728;8.748;2024-02-21T03:35:20;100819.22;;;7.14;100.00
34925;BME280;21130;51.728;8.748;2024-02-21T03:37:46;100821.97;;;7.14;100.00
34925;BME280;21130;51.728;8.748;2024-02-21T03:40:13;100810.09;;;7.13;100.00
34925;BME280;21130;51.728;8.748;2024-02-21T03:42:39;100815.63;;;7.13;100.00
34925;BME280;21130;51.728;8.748;2024-02-21T03:45:07;100820.28;;;7.13;100.00
34925;BME280;21130;51.728;8.748;2024-02-21T03:47:35;100824.53;;;7.16;100.00
34925;BME280;21130;51.728;8.748;2024-02-21T03:50:01;100816.03;;;7.17;100.00
34925;BME280;21130;51.728;8.748;2024-02-21T03:52:29;100820.25;;;7.20;100.00
34925;BME280;21130;51.728;8.748;2024-02-21T03:54:56;100821.34;;;7.19;100.00
34925;BME280;21130;51.728;8.748;2024-02-21T03:57:22;100833.22;;;7.19;100.00
34925;BME280;21130;51.728;8.748;2024-02-21T03:59:50;100820.06;;;7.21;100.00
34925;BME280;21130;51.728;8.748;2024-02-21T04:02:17;100817.28;;;7.21;100.00
34925;BME280;21130;51.728;8.748;2024-02-21T04:04:45;100833.41;;;7.24;100.00
34925;BME280;21130;51.728;8.748;2024-02-21T04:07:13;100839.81;;;7.25;100.00
34925;BME280;21130;51.728;8.748;2024-02-21T04:09:39;100842.13;;;7.28;100.00
34925;BME280;21130;51.728;8.748;2024-02-21T04:12:08;100841.50;;;7.26;100.00
34925;BME280;21130;51.728;8.748;2024-02-21T04:14:34;100826.63;;;7.27;100.00
34925;BME280;21130;51.728;8.748;2024-02-21T04:17:02;100833.22;;;7.26;100.00
34925;BME280;21130;51.728;8.748;2024-02-21T04:19:30;100832.16;;;7.27;100.00
34925;BME280;21130;51.728;8.748;2024-02-21T04:21:59;100830.25;;;7.27;100.00
34925;BME280;21130;51.728;8.748;2024-02-21T04:24:25;100827.50;;;7.27;100.00
34925;BME280;21130;51.728;8.748;2024-02-21T04:26:52;100821.09;;;7.27;100.00
34925;BME280;21130;51.728;8.748;2024-02-21T04:29:18;100824.94;;;7.26;100.00
34925;BME280;21130;51.728;8.748;2024-02-21T04:31:45;100834.28;;;7.25;100.00
34925;BME280;21130;51.728;8.748;2024-02-21T04:34:11;100848.72;;;7.27;100.00
34925;BME280;21130;51.728;8.748;2024-02-21T04:36:38;100848.50;;;7.28;100.00
34925;BME280;21130;51.728;8.748;2024-02-21T04:39:05;100850.84;;;7.25;100.00
34925;BME280;21130;51.728;8.748;2024-02-21T04:41:32;100855.50;;;7.24;100.00
34925;BME280;21130;51.728;8.748;2024-02-21T04:43:58;100843.81;;;7.22;100.00
34925;BME280;21130;51.728;8.748;2024-02-21T04:46:25;100843.63;;;7.24;100.00
34925;BME280;21130;51.728;8.748;2024-02-21T04:48:51;100841.94;;;7.23;100.00
34925;BME280;21130;51.728;8.748;2024-02-21T04:51:18;100842.34;;;7.20;100.00
34925;BME280;21130;51.728;8.748;2024-02-21T04:53:44;100844.91;;;7.21;100.00
34925;BME280;21130;51.728;8.748;2024-02-21T04:56:12;100841.06;;;7.22;100.00
34925;BME280;21130;51.728;8.748;2024-02-21T04:58:39;100841.06;;;7.22;100.00
34925;BME280;21130;51.728;8.748;2024-02-21T05:01:06;100842.78;;;7.23;100.00
34925;BME280;21130;51.728;8.748;2024-02-21T05:03:33;100835.13;;;7.19;100.00
34925;BME280;21130;51.728;8.748;2024-02-21T05:05:59;100844.50;;;7.18;100.00
34925;BME280;21130;51.728;8.748;2024-02-21T05:08:26;100845.34;;;7.18;100.00
34925;BME280;21130;51.728;8.748;2024-02-21T05:10:52;100851.50;;;7.20;100.00
34925;BME280;21130;51.728;8.748;2024-02-21T05:13:20;100848.09;;;7.18;100.00
34925;BME280;21130;51.728;8.748;2024-02-21T05:15:47;100842.97;;;7.22;100.00
34925;BME280;21130;51.728;8.748;2024-02-21T05:18:13;100843.41;;;7.19;100.00
34925;BME280;21130;51.728;8.748;2024-02-21T05:20:40;100843.63;;;7.17;100.00
34925;BME280;21130;51.728;8.748;2024-02-21T05:23:07;100852.97;;;7.16;100.00
34925;BME280;21130;51.728;8.748;2024-02-21T05:25:33;100858.69;;;7.14;100.00
34925;BME280;21130;51.728;8.748;2024-02-21T05:28:00;100859.34;;;7.17;100.00
34925;BME280;21130;51.728;8.748;2024-02-21T05:30:29;100862.34;;;7.15;100.00
34925;BME280;21130;51.728;8.748;2024-02-21T05:32:56;100848.53;;;7.15;100.00
34925;BME280;21130;51.728;8.748;2024-02-21T05:35:25;100840.88;;;7.17;100.00
34925;BME280;21130;51.728;8.748;2024-02-21T05:37:52;100828.34;;;7.14;100.00
34925;BME280;21130;51.728;8.748;2024-02-21T05:40:18;100824.97;;;7.12;100.00
34925;BME280;21130;51.728;8.748;2024-02-21T05:43:06;100823.91;;;7.13;100.00
34925;BME280;21130;51.728;8.748;2024-02-21T05:45:54;100816.25;;;7.16;100.00
34925;BME280;21130;51.728;8.748;2024-02-21T05:48:41;100807.34;;;7.13;100.00
34925;BME280;21130;51.728;8.748;2024-02-21T05:51:32;100809.00;;;7.14;100.00
34925;BME280;21130;51.728;8.748;2024-02-21T05:53:58;100802.88;;;7.12;100.00
34925;BME280;21130;51.728;8.748;2024-02-21T05:56:25;100799.91;;;7.14;100.00
34925;BME280;21130;51.728;8.748;2024-02-21T05:58:52;100790.13;;;7.11;100.00
34925;BME280;21130;51.728;8.748;2024-02-21T06:01:20;100795.66;;;7.11;100.00
34925;BME280;21130;51.728;8.748;2024-02-21T06:03:47;100783.56;;;7.12;100.00
34925;BME280;21130;51.728;8.748;2024-02-21T06:06:13;100783.34;;;7.14;100.00
34925;BME280;21130;51.728;8.748;2024-02-21T06:08:40;100776.97;;;7.13;100.00
34925;BME280;21130;51.728;8.748;2024-02-21T06:11:07;100757.44;;;7.15;100.00
34925;BME280;21130;51.728;8.748;2024-02-21T06:13:37;100763.38;;;7.12;100.00
34925;BME280;21130;51.728;8.748;2024-02-21T06:16:05;100776.13;;;7.13;100.00
34925;BME280;21130;51.728;8.748;2024-02-21T06:18:35;100775.28;;;7.12;100.00
34925;BME280;21130;51.728;8.748;2024-02-21T06:21:03;100773.38;;;7.13;100.00
34925;BME280;21130;51.728;8.748;2024-02-21T06:23:29;100777.19;;;7.12;100.00
34925;BME280;21130;51.728;8.748;2024-02-21T06:25:55;100776.13;;;7.13;100.00
34925;BME280;21130;51.728;8.748;2024-02-21T06:28:26;100775.28;;;7.12;100.00
34925;BME280;21130;51.728;8.748;2024-02-21T06:30:52;100777.81;;;7.14;100.00
34925;BME280;21130;51.728;8.748;2024-02-21T06:33:19;100775.28;;;7.12;100.00
34925;BME280;21130;51.728;8.748;2024-02-21T06:35:51;100788.41;;;7.17;100.00
34925;BME280;21130;51.728;8.748;2024-02-21T06:38:19;100777.16;;;7.19;100.00
34925;BME280;21130;51.728;8.748;2024-02-21T06:40:45;100774.00;;;7.15;100.00
34925;BME280;21130;51.728;8.748;2024-02-21T06:43:17;100752.97;;;7.21;100.00
34925;BME280;21130;51.728;8.748;2024-02-21T06:45:43;100744.69;;;7.21;100.00
34925;BME280;21130;51.728;8.748;2024-02-21T06:48:12;100736.59;;;7.19;100.00
34925;BME280;21130;51.728;8.748;2024-02-21T06:50:39;100728.75;;;7.23;100.00
34925;BME280;21130;51.728;8.748;2024-02-21T06:53:07;100720.25;;;7.24;100.00
34925;BME280;21130;51.728;8.748;2024-02-21T06:55:33;100723.88;;;7.25;100.00
34925;BME280;21130;51.728;8.748;2024-02-21T06:58:00;100724.28;;;7.22;100.00
34925;BME280;21130;51.728;8.748;2024-02-21T07:00:27;100720.03;;;7.26;100.00
34925;BME280;21130;51.728;8.748;2024-02-21T07:02:53;100720.44;;;7.29;100.00
34925;BME280;21130;51.728;8.748;2024-02-21T07:05:20;100718.75;;;7.28;100.00
34925;BME280;21130;51.728;8.748;2024-02-21T07:07:46;100717.91;;;7.28;100.00
34925;BME280;21130;51.728;8.748;2024-02-21T07:10:14;100706.41;;;7.31;100.00
34925;BME280;21130;51.728;8.748;2024-02-21T07:12:40;100705.97;;;7.34;100.00
34925;BME280;21130;51.728;8.748;2024-02-21T07:15:08;100703.84;;;7.36;100.00
34925;BME280;21130;51.728;8.748;2024-02-21T07:17:35;100697.03;;;7.39;100.00
34925;BME280;21130;51.728;8.748;2024-02-21T07:20:03;100705.72;;;7.42;100.00
34925;BME280;21130;51.728;8.748;2024-02-21T07:22:30;100702.75;;;7.44;100.00
34925;BME280;21130;51.728;8.748;2024-02-21T07:24:56;100714.41;;;7.52;100.00
34925;BME280;21130;51.728;8.748;2024-02-21T07:27:24;100705.69;;;7.49;100.00
34925;BME280;21130;51.728;8.748;2024-02-21T07:29:54;100701.22;;;7.54;100.00
34925;BME280;21130;51.728;8.748;2024-02-21T07:32:20;100709.72;;;7.53;100.00
34925;BME280;21130;51.728;8.748;2024-02-21T07:34:47;100719.69;;;7.54;100.00
34925;BME280;21130;51.728;8.748;2024-02-21T07:37:13;100720.13;;;7.57;100.00
34925;BME280;21130;51.728;8.748;2024-02-21T07:39:40;100722.88;;;7.57;100.00
34925;BME280;21130;51.728;8.748;2024-02-21T07:42:07;100725.84;;;7.63;100.00
34925;BME280;21130;51.728;8.748;2024-02-21T07:44:34;100722.81;;;7.71;100.00
34925;BME280;21130;51.728;8.748;2024-02-21T07:47:01;100720.22;;;7.76;100.00
34925;BME280;21130;51.728;8.748;2024-02-21T07:49:27;100728.06;;;7.79;100.00
34925;BME280;21130;51.728;8.748;2024-02-21T07:51:54;100713.84;;;7.75;100.00
34925;BME280;21130;51.728;8.748;2024-02-21T07:54:20;100706.16;;;7.84;100.00
34925;BME280;21130;51.728;8.748;2024-02-21T07:56:46;100708.44;;;7.87;100.00
34925;BME280;21130;51.728;8.748;2024-02-21T07:59:13;100713.94;;;7.94;100.00
34925;BME280;21130;51.728;8.748;2024-02-21T08:01:41;100711.16;;;8.00;100.00
34925;BME280;21130;51.728;8.748;2024-02-21T08:04:07;100713.00;;;8.07;100.00
34925;BME280;21130;51.728;8.748;2024-02-21T08:06:34;100701.97;;;8.07;100.00
34925;BME280;21130;51.728;8.748;2024-02-21T08:09:00;100705.81;;;8.06;100.00
34925;BME280;21130;51.728;8.748;2024-02-21T08:11:27;100696.88;;;8.04;100.00
34925;BME280;21130;51.728;8.748;2024-02-21T08:13:53;100702.63;;;8.02;100.00
34925;BME280;21130;51.728;8.748;2024-02-21T08:16:20;100696.88;;;8.04;100.00
34925;BME280;21130;51.728;8.748;2024-02-21T08:18:47;100699.47;;;7.98;100.00
34925;BME280;21130;51.728;8.748;2024-02-21T08:21:14;100698.38;;;7.99;100.00
34925;BME280;21130;51.728;8.748;2024-02-21T08:23:41;100692.44;;;8.03;100.00
34925;BME280;21130;51.728;8.748;2024-02-21T08:26:07;100689.88;;;8.01;100.00
34925;BME280;21130;51.728;8.748;2024-02-21T08:31:39;100681.38;;;8.03;100.00
34925;BME280;21130;51.728;8.748;2024-02-21T08:34:07;100687.75;;;8.03;100.00
34925;BME280;21130;51.728;8.748;2024-02-21T08:36:34;100661.78;;;8.04;100.00
34925;BME280;21130;51.728;8.748;2024-02-21T08:39:02;100674.31;;;8.07;100.00
34925;BME280;21130;51.728;8.748;2024-02-21T08:41:30;100674.19;;;8.20;100.00
34925;BME280;21130;51.728;8.748;2024-02-21T08:43:57;100656.31;;;8.22;100.00
34925;BME280;21130;51.728;8.748;2024-02-21T08:46:24;100657.50;;;8.33;100.00
34925;BME280;21130;51.728;8.748;2024-02-21T08:48:50;100659.19;;;8.41;100.00
34925;BME280;21130;51.728;8.748;2024-02-21T08:51:19;100647.28;;;8.40;100.00
34925;BME280;21130;51.728;8.748;2024-02-21T08:53:45;100644.06;;;8.43;100.00
34925;BME280;21130;51.728;8.748;2024-02-21T08:56:12;100652.34;;;8.43;100.00
34925;BME280;21130;51.728;8.748;2024-02-21T08:58:40;100645.97;;;8.43;100.00
34925;BME280;21130;51.728;8.748;2024-02-21T09:01:07;100629.75;;;8.47;100.00
34925;BME280;21130;51.728;8.748;2024-02-21T09:03:36;100634.91;;;8.43;100.00
34925;BME280;21130;51.728;8.748;2024-02-21T09:06:03;100633.19;;;8.42;100.00
34925;BME280;21130;51.728;8.748;2024-02-21T09:08:31;100625.91;;;8.48;100.00
34925;BME280;21130;51.728;8.748;2024-02-21T09:10:57;100632.75;;;8.45;100.00
34925;BME280;21130;51.728;8.748;2024-02-21T09:13:24;100625.69;;;8.49;100.00
34925;BME280;21130;51.728;8.748;2024-02-21T09:15:50;100631.22;;;8.49;100.00
34925;BME280;21130;51.728;8.748;2024-02-21T09:18:17;100636.69;;;8.56;100.00
34925;BME280;21130;51.728;8.748;2024-02-21T09:20:43;100632.00;;;8.56;100.00
34925;BME280;21130;51.728;8.748;2024-02-21T09:23:10;100634.97;;;8.55;100.00
34925;BME280;21130;51.728;8.748;2024-02-21T09:25:37;100631.22;;;8.49;100.00
34925;BME280;21130;51.728;8.748;2024-02-21T09:28:05;100636.13;;;8.47;100.00
34925;BME280;21130;51.728;8.748;2024-02-21T09:30:32;100628.16;;;8.57;100.00
34925;BME280;21130;51.728;8.748;2024-02-21T09:32:58;100631.47;;;8.66;100.00
34925;BME280;21130;51.728;8.748;2024-02-21T09:35:26;100639.31;;;8.69;100.00
34925;BME280;21130;51.728;8.748;2024-02-21T09:37:53;100628.03;;;8.71;100.00
34925;BME280;21130;51.728;8.748;2024-02-21T09:40:20;100635.66;;;8.75;100.00
34925;BME280;21130;51.728;8.748;2024-02-21T09:42:48;100630.94;;;8.76;100.00
34925;BME280;21130;51.728;8.748;2024-02-21T09:45:19;100623.66;;;8.81;100.00
34925;BME280;21130;51.728;8.748;2024-02-21T09:47:53;100623.50;;;8.58;100.00
34925;BME280;21130;51.728;8.748;2024-02-21T09:50:23;100624.22;;;8.65;100.00
34925;BME280;21130;51.728;8.748;2024-02-21T09:52:51;100618.69;;;8.65;100.00
34925;BME280;21130;51.728;8.748;2024-02-21T09:55:18;100606.44;;;8.61;100.00
34925;BME280;21130;51.728;8.748;2024-02-21T09:57:45;100606.78;;;8.64;100.00
34925;BME280;21130;51.728;8.748;2024-02-21T10:00:14;100606.72;;;8.71;100.00
34925;BME280;21130;51.728;8.748;2024-02-21T10:02:47;100604.97;;;8.77;100.00
34925;BME280;21130;51.728;8.748;2024-02-21T10:05:13;100595.03;;;8.87;100.00
34925;BME280;21130;51.728;8.748;2024-02-21T10:07:40;100575.22;;;8.91;100.00
34925;BME280;21130;51.728;8.748;2024-02-21T10:10:07;100575.81;;;8.93;100.00
34925;BME280;21130;51.728;8.748;2024-02-21T10:12:34;100584.25;;;9.16;100.00
34925;BME280;21130;51.728;8.748;2024-02-21T10:15:01;100579.91;;;9.20;100.00
34925;BME280;21130;51.728;8.748;2024-02-21T10:17:29;100574.34;;;9.08;100.00
34925;BME280;21130;51.728;8.748;2024-02-21T10:19:55;100568.25;;;9.18;100.00
34925;BME280;21130;51.728;8.748;2024-02-21T10:22:21;100572.91;;;9.18;100.00
34925;BME280;21130;51.728;8.748;2024-02-21T10:24:48;100568.19;;;9.06;100.00
34925;BME280;21130;51.728;8.748;2024-02-21T10:27:15;100563.78;;;9.17;100.00
34925;BME280;21130;51.728;8.748;2024-02-21T10:29:49;100554.06;;;9.26;100.00
34925;BME280;21130;51.728;8.748;2024-02-21T10:32:16;100553.44;;;9.24;100.00
34925;BME280;21130;51.728;8.748;2024-02-21T10:34:43;100551.22;;;9.45;100.00
34925;BME280;21130;51.728;8.748;2024-02-21T10:37:11;100536.53;;;9.44;100.00
34925;BME280;21130;51.728;8.748;2024-02-21T10:39:39;100548.09;;;9.41;100.00
34925;BME280;21130;51.728;8.748;2024-02-21T10:42:06;100546.56;;;9.57;100.00
34925;BME280;21130;51.728;8.748;2024-02-21T10:44:36;100538.16;;;9.64;100.00
34925;BME280;21130;51.728;8.748;2024-02-21T10:47:07;100532.47;;;9.70;100.00
34925;BME280;21130;51.728;8.748;2024-02-21T10:49:36;100528.91;;;9.82;100.00
34925;BME280;21130;51.728;8.748;2024-02-21T10:52:13;100530.38;;;9.96;100.00
34925;BME280;21130;51.728;8.748;2024-02-21T10:54:44;100530.59;;;9.94;100.00
34925;BME280;21130;51.728;8.748;2024-02-21T10:57:12;100530.56;;;9.83;100.00
34925;BME280;21130;51.728;8.748;2024-02-21T10:59:39;100522.75;;;9.91;100.00
34925;BME280;21130;51.728;8.748;2024-02-21T11:02:06;100507.59;;;10.06;100.00
34925;BME280;21130;51.728;8.748;2024-02-21T11:04:33;100519.16;;;9.91;100.00
34925;BME280;21130;51.728;8.748;2024-02-21T11:07:02;100503.59;;;9.90;100.00
34925;BME280;21130;51.728;8.748;2024-02-21T11:09:31;100492.50;;;9.90;100.00
34925;BME280;21130;51.728;8.748;2024-02-21T11:11:58;100489.84;;;9.71;100.00
34925;BME280;21130;51.728;8.748;2024-02-21T11:14:27;100484.91;;;9.85;100.00
34925;BME280;21130;51.728;8.748;2024-02-21T11:16:54;100476.72;;;10.14;100.00
34925;BME280;21130;51.728;8.748;2024-02-21T11:19:22;100469.59;;;10.06;100.00
34925;BME280;21130;51.728;8.748;2024-02-21T11:21:49;100463.69;;;10.03;100.00
34925;BME280;21130;51.728;8.748;2024-02-21T11:24:25;100460.94;;;9.91;100.00
34925;BME280;21130;51.728;8.748;2024-02-21T11:26:53;100461.88;;;9.73;100.00
34925;BME280;21130;51.728;8.748;2024-02-21T11:29:23;100462.47;;;9.75;100.00
34925;BME280;21130;51.728;8.748;2024-02-21T11:31:50;100459.34;;;9.60;100.00
34925;BME280;21130;51.728;8.748;2024-02-21T11:34:21;100442.72;;;9.60;100.00
34925;BME280;21130;51.728;8.748;2024-02-21T11:36:49;100442.97;;;9.82;100.00
34925;BME280;21130;51.728;8.748;2024-02-21T11:39:21;100433.91;;;9.98;100.00
34925;BME280;21130;51.728;8.748;2024-02-21T11:42:03;100432.59;;;9.89;100.00
34925;BME280;21130;51.728;8.748;2024-02-21T11:44:29;100429.13;;;9.93;100.00
34925;BME280;21130;51.728;8.748;2024-02-21T11:46:56;100419.81;;;10.00;100.00
34925;BME280;21130;51.728;8.748;2024-02-21T11:49:24;100413.44;;;9.99;100.00
34925;BME280;21130;51.728;8.748;2024-02-21T11:51:57;100395.97;;;9.99;100.00
34925;BME280;21130;51.728;8.748;2024-02-21T11:54:24;100395.97;;;9.75;100.00
34925;BME280;21130;51.728;8.748;2024-02-21T11:56:50;100386.59;;;9.76;100.00
34925;BME280;21130;51.728;8.748;2024-02-21T11:59:18;100380.22;;;9.64;100.00
34925;BME280;21130;51.728;8.748;2024-02-21T12:01:44;100366.59;;;9.62;100.00
34925;BME280;21130;51.728;8.748;2024-02-21T12:04:11;100365.63;;;9.57;100.00
34925;BME280;21130;51.728;8.748;2024-02-21T12:06:38;100361.91;;;9.51;100.00
34925;BME280;21130;51.728;8.748;2024-02-21T12:09:07;100359.03;;;9.46;100.00
34925;BME280;21130;51.728;8.748;2024-02-21T12:11:34;100354.31;;;9.46;100.00
34925;BME280;21130;51.728;8.748;2024-02-21T12:14:01;100362.25;;;9.43;100.00
34925;BME280;21130;51.728;8.748;2024-02-21T12:16:30;100355.53;;;9.39;100.00
34925;BME280;21130;51.728;8.748;2024-02-21T12:18:57;100354.91;;;9.37;100.00
34925;BME280;21130;51.728;8.748;2024-02-21T12:21:24;100370.22;;;9.39;100.00
34925;BME280;21130;51.728;8.748;2024-02-21T12:23:51;100363.47;;;9.23;100.00
34925;BME280;21130;51.728;8.748;2024-02-21T12:26:17;100360.19;;;9.15;100.00
34925;BME280;21130;51.728;8.748;2024-02-21T12:28:43;100358.63;;;9.19;100.00
34925;BME280;21130;51.728;8.748;2024-02-21T12:31:11;100354.16;;;9.18;100.00
34925;BME280;21130;51.728;8.748;2024-02-21T12:33:39;100343.56;;;9.15;100.00
34925;BME280;21130;51.728;8.748;2024-02-21T12:36:06;100336.84;;;9.11;100.00
34925;BME280;21130;51.728;8.748;2024-02-21T12:38:34;100338.19;;;9.08;100.00
34925;BME280;21130;51.728;8.748;2024-02-21T12:41:00;100336.97;;;9.16;100.00
34925;BME280;21130;51.728;8.748;2024-02-21T12:43:27;100331.31;;;9.22;100.00
34925;BME280;21130;51.728;8.748;2024-02-21T12:45:54;100322.06;;;9.28;100.00
34925;BME280;21130;51.728;8.748;2024-02-21T12:48:20;100311.06;;;9.45;100.00
34925;BME280;21130;51.728;8.748;2024-02-21T12:50:50;100297.69;;;9.54;100.00
34925;BME280;21130;51.728;8.748;2024-02-21T12:53:16;100284.34;;;9.51;100.00
34925;BME280;21130;51.728;8.748;2024-02-21T12:55:44;100279.13;;;9.55;100.00
34925;BME280;21130;51.728;8.748;2024-02-21T12:58:10;100269.03;;;9.48;100.00